Time;durP1;ratioP1;P1;durP2;ratioP2;P2;SDS_P1;SDS_P2;PMS_P1;PMS_P2;Temp;Humidity;BMP_temperature;BMP_pressure;BME280_temperature;BME280_humidity;BME280_pressure;Samples;Min_cycle;Max_cycle;Signal;HPM_P1;HPM_P2
2024/01/04 00:01:17;;;;;;;;;;;;;;;;;;5134895;28;20375;-41
2024/01/04 00:03:43;;;;;;;;;;;;;;;;;;5134753;28;20034;-41
2024/01/04 00:06:08;;;;;;;;;;;;;;;;;;5135174;28;19984;-42
2024/01/04 00:08:34;;;;;;;;;;;;;;;;;;5134705;28;20002;-43
2024/01/04 00:11:00;;;;;;;;;;;;;;;;;;5134322;28;19924;-42
2024/01/04 00:13:25;;;;;;;;;;;;;;;;;;5134809;28;20371;-40
2024/01/04 00:15:50;;;;;;;;;;;;;;;;;;5134430;28;19962;-41
2024/01/04 00:18:16;;;;;;;;;;;;;;;;;;5134728;28;19923;-40
2024/01/04 00:20:42;;;;;;;;;;;;;;;;;;5131670;28;19923;-40
2024/01/04 00:23:07;;;;;;;;;;;;;;;;;;5134828;28;20014;-39
2024/01/04 00:25:32;;;;;;;;;;;;;;;;;;5134271;28;19927;-42
2024/01/04 00:27:58;;;;;;;;;;;;;;;;;;5133085;28;20460;-41
2024/01/04 00:30:23;;;;;;;;;;;;;;;;;;5127735;28;20040;-39
2024/01/04 00:32:49;;;;;;;;;;;;;;;;;;5134518;28;19927;-42
2024/01/04 00:35:14;;;;;;;;;;;;;;;;;;5134484;27;20014;-41
2024/01/04 00:37:40;;;;;;;;;;;;;;;;;;5133556;28;20312;-40
2024/01/04 00:40:05;;;;;;;;;;;;;;;;;;5134190;28;19923;-39
2024/01/04 00:42:31;;;;;;;;;;;;;;;;;;5134464;28;19923;-42
2024/01/04 00:44:56;;;;;;;;;;;;;;;;;;5133994;28;20026;-41
2024/01/04 00:47:21;;;;;;;;;;;;;;;;;;5134200;28;19966;-39
2024/01/04 00:49:47;;;;;;;;;;;;;;;;;;5134230;28;19970;-40
2024/01/04 00:52:12;;;;;;;;;;;;;;;;;;5134340;28;19988;-40
2024/01/04 00:54:38;;;;;;;;;;;;;;;;;;5132146;28;20022;-40
2024/01/04 00:57:03;;;;;;;;;;;;;;;;;;5134252;28;20010;-40
2024/01/04 00:59:29;;;;;;;;;;;;;;;;;;5134271;28;19924;-40
2024/01/04 01:01:54;;;;;;;;;;;;;;;;;;5133781;28;19996;-41
2024/01/04 01:04:20;;;;;;;;;;;;;;;;;;5134257;28;20366;-41
2024/01/04 01:06:45;;;;;;;;;;;;;;;;;;5134087;28;20298;-40
2024/01/04 01:09:11;;;;;;;;;;;;;;;;;;5133154;28;19930;-42
2024/01/04 01:11:36;;;;;;;;;;;;;;;;;;5133082;27;20394;-40
2024/01/04 01:14:02;;;;;;;;;;;;;;;;;;5133198;28;20010;-40
2024/01/04 01:16:27;;;;;;;;;;;;;;;;;;5133495;28;20339;-40
2024/01/04 01:18:52;;;;;;;;;;;;;;;;;;5133296;28;20014;-40
2024/01/04 01:21:18;;;;;;;;;;;;;;;;;;5133793;28;19931;-42
2024/01/04 01:23:44;;;;;;;;;;;;;;;;;;5129573;28;19923;-40
2024/01/04 01:26:09;;;;;;;;;;;;;;;;;;5131771;28;19990;-41
2024/01/04 01:28:34;;;;;;;;;;;;;;;;;;5133509;28;20014;-43
2024/01/04 01:31:01;;;;;;;;;;;;;;;;;;5133506;28;19969;-42
2024/01/04 01:33:27;;;;;;;;;;;;;;;;;;5133414;28;19931;-40
2024/01/04 01:35:52;;;;;;;;;;;;;;;;;;5121738;28;19963;-44
2024/01/04 01:38:18;;;;;;;;;;;;;;;;;;5133354;28;19971;-42
2024/01/04 01:40:43;;;;;;;;;;;;;;;;;;5133007;28;19962;-42
2024/01/04 01:43:09;;;;;;;;;;;;;;;;;;5133535;28;20018;-40
2024/01/04 01:45:34;;;;;;;;;;;;;;;;;;5133015;28;19974;-40
2024/01/04 01:48:00;;;;;;;;;;;;;;;;;;5133116;28;20010;-40
2024/01/04 01:50:25;;;;;;;;;;;;;;;;;;5133075;28;19928;-40
2024/01/04 01:52:51;;;;;;;;;;;;;;;;;;5133441;28;20318;-43
2024/01/04 01:55:16;;;;;;;;;;;;;;;;;;5131972;28;20278;-41
2024/01/04 01:57:42;;;;;;;;;;;;;;;;;;5132867;28;20059;-42
2024/01/04 02:00:09;;;;;;;;;;;;;;;;;;5132779;28;19966;-40
2024/01/04 02:02:34;;;;;;;;;;;;;;;;;;5132756;28;19977;-41
2024/01/04 02:05:00;;;;;;;;;;;;;;;;;;5132134;28;19923;-41
2024/01/04 02:07:26;;;;;;;;;;;;;;;;;;5132599;28;20370;-41
2024/01/04 02:09:51;;;;;;;;;;;;;;;;;;5132210;28;19923;-42
2024/01/04 02:12:16;;;;;;;;;;;;;;;;;;5132522;28;19962;-41
2024/01/04 02:14:42;;;;;;;;;;;;;;;;;;5117097;28;19931;-41
2024/01/04 02:17:08;;;;;;;;;;;;;;;;;;5124599;28;19923;-41
2024/01/04 02:19:33;;;;;;;;;;;;;;;;;;5132787;28;20454;-41
2024/01/04 02:21:58;;;;;;;;;;;;;;;;;;5130960;27;19925;-42
2024/01/04 02:24:25;;;;;;;;;;;;;;;;;;5130734;28;20385;-42
2024/01/04 02:26:50;;;;;;;;;;;;;;;;;;5132899;28;19993;-41
2024/01/04 02:29:16;;;;;;;;;;;;;;;;;;5131045;28;20286;-40
2024/01/04 02:31:41;;;;;;;;;;;;;;;;;;5132644;28;20264;-40
2024/01/04 02:34:07;;;;;;;;;;;;;;;;;;5132882;28;19923;-42
2024/01/04 02:36:32;;;;;;;;;;;;;;;;;;5132320;28;19955;-42
2024/01/04 02:38:58;;;;;;;;;;;;;;;;;;5132525;28;20469;-43
2024/01/04 02:41:23;;;;;;;;;;;;;;;;;;5132173;28;20297;-44
2024/01/04 02:43:49;;;;;;;;;;;;;;;;;;5132548;28;19975;-43
2024/01/04 02:46:14;;;;;;;;;;;;;;;;;;5131951;27;20412;-41
2024/01/04 02:48:40;;;;;;;;;;;;;;;;;;5132536;28;19955;-43
2024/01/04 02:51:05;;;;;;;;;;;;;;;;;;5132177;28;20014;-43
2024/01/04 02:53:31;;;;;;;;;;;;;;;;;;5132410;28;20268;-41
2024/01/04 02:55:56;;;;;;;;;;;;;;;;;;5131066;28;20404;-41
2024/01/04 02:58:22;;;;;;;;;;;;;;;;;;5132121;28;20052;-39
2024/01/04 03:00:47;;;;;;;;;;;;;;;;;;5132201;28;20022;-43
2024/01/04 03:03:13;;;;;;;;;;;;;;;;;;5132679;28;19923;-41
2024/01/04 03:05:38;;;;;;;;;;;;;;;;;;5132202;28;19927;-41
2024/01/04 03:08:03;;;;;;;;;;;;;;;;;;5131987;28;19963;-42
2024/01/04 03:10:29;;;;;;;;;;;;;;;;;;5132001;28;19973;-40
2024/01/04 03:12:54;;;;;;;;;;;;;;;;;;5132266;28;19931;-42
2024/01/04 03:15:20;;;;;;;;;;;;;;;;;;5131785;28;20399;-42
2024/01/04 03:17:45;;;;;;;;;;;;;;;;;;5131877;28;19954;-43
2024/01/04 03:20:11;;;;;;;;;;;;;;;;;;5131968;28;20019;-43
2024/01/04 03:22:36;;;;;;;;;;;;;;;;;;5131851;28;20282;-41
2024/01/04 03:25:02;;;;;;;;;;;;;;;;;;5130136;28;19923;-42
2024/01/04 03:27:28;;;;;;;;;;;;;;;;;;5115350;27;19923;-41
2024/01/04 03:29:55;;;;;;;;;;;;;;;;;;5128223;28;19923;-43
2024/01/04 03:32:20;;;;;;;;;;;;;;;;;;5120458;28;19927;-43
2024/01/04 03:34:46;;;;;;;;;;;;;;;;;;5134119;27;20011;-41
2024/01/04 03:37:11;;;;;;;;;;;;;;;;;;5135176;28;19973;-42
2024/01/04 03:39:37;;;;;;;;;;;;;;;;;;5135041;28;19927;-43
2024/01/04 03:42:02;;;;;;;;;;;;;;;;;;5135177;28;19934;-42
2024/01/04 03:44:28;;;;;;;;;;;;;;;;;;5135043;28;20018;-42
2024/01/04 03:46:53;;;;;;;;;;;;;;;;;;5134791;28;19930;-39
2024/01/04 03:49:18;;;;;;;;;;;;;;;;;;5135231;28;19954;-40
2024/01/04 03:51:44;;;;;;;;;;;;;;;;;;5134780;28;20391;-43
2024/01/04 03:54:09;;;;;;;;;;;;;;;;;;5135242;28;20007;-41
2024/01/04 03:56:35;;;;;;;;;;;;;;;;;;5134557;28;20145;-43
2024/01/04 03:59:00;;;;;;;;;;;;;;;;;;5133693;28;19946;-40
2024/01/04 04:01:26;;;;;;;;;;;;;;;;;;5135093;28;20417;-42
2024/01/04 04:03:51;;;;;;;;;;;;;;;;;;5135025;28;20319;-41
2024/01/04 04:06:17;;;;;;;;;;;;;;;;;;5130624;28;20015;-43
2024/01/04 04:08:42;;;;;;;;;;;;;;;;;;5134479;28;20327;-40
2024/01/04 04:11:08;;;;;;;;;;;;;;;;;;5134392;28;19923;-42
2024/01/04 04:13:33;;;;;;;;;;;;;;;;;;5133790;28;19931;-41
2024/01/04 04:15:59;;;;;;;;;;;;;;;;;;5133712;28;20446;-44
2024/01/04 04:18:24;;;;;;;;;;;;;;;;;;5134308;28;19989;-40
2024/01/04 04:20:50;;;;;;;;;;;;;;;;;;5134319;28;20007;-41
2024/01/04 04:23:15;;;;;;;;;;;;;;;;;;5133533;28;19970;-42
2024/01/04 04:25:41;;;;;;;;;;;;;;;;;;5134327;28;20426;-41
2024/01/04 04:28:06;;;;;;;;;;;;;;;;;;5134210;28;20338;-40
2024/01/04 04:30:32;;;;;;;;;;;;;;;;;;5134628;28;19982;-44
2024/01/04 04:32:57;;;;;;;;;;;;;;;;;;5133277;28;19923;-41
2024/01/04 04:35:23;;;;;;;;;;;;;;;;;;5134754;27;20418;-42
2024/01/04 04:37:48;;;;;;;;;;;;;;;;;;5134579;28;19924;-41
2024/01/04 04:40:14;;;;;;;;;;;;;;;;;;5133988;28;19973;-41
2024/01/04 04:42:41;;;;;;;;;;;;;;;;;;5134473;28;20436;-41
2024/01/04 04:45:06;;;;;;;;;;;;;;;;;;5132746;27;19931;-41
2024/01/04 04:47:32;;;;;;;;;;;;;;;;;;5134227;28;19923;-42
2024/01/04 04:49:57;;;;;;;;;;;;;;;;;;5134190;28;20018;-40
2024/01/04 04:52:23;;;;;;;;;;;;;;;;;;5133928;28;20011;-43
2024/01/04 04:54:48;;;;;;;;;;;;;;;;;;5129972;28;20026;-43
2024/01/04 04:57:13;;;;;;;;;;;;;;;;;;5133909;28;20371;-44
2024/01/04 04:59:39;;;;;;;;;;;;;;;;;;5133728;28;19959;-42
2024/01/04 05:02:05;;;;;;;;;;;;;;;;;;5132094;28;19965;-44
2024/01/04 05:04:30;;;;;;;;;;;;;;;;;;5128031;28;19955;-40
2024/01/04 05:06:55;;;;;;;;;;;;;;;;;;5133946;28;19977;-42
2024/01/04 05:09:21;;;;;;;;;;;;;;;;;;5133922;28;19962;-42
2024/01/04 05:11:46;;;;;;;;;;;;;;;;;;5134115;28;19942;-40
2024/01/04 05:14:12;;;;;;;;;;;;;;;;;;5133344;28;20031;-44
2024/01/04 05:16:37;;;;;;;;;;;;;;;;;;5133648;28;19927;-41
2024/01/04 05:19:03;;;;;;;;;;;;;;;;;;5134085;28;19957;-40
2024/01/04 05:21:29;;;;;;;;;;;;;;;;;;5133596;28;19930;-42
2024/01/04 05:23:54;;;;;;;;;;;;;;;;;;5132742;28;19923;-40
2024/01/04 05:26:20;;;;;;;;;;;;;;;;;;5132375;28;20018;-40
2024/01/04 05:28:46;;;;;;;;;;;;;;;;;;5133080;28;19927;-41
2024/01/04 05:31:11;;;;;;;;;;;;;;;;;;5133407;28;19935;-40
2024/01/04 05:33:37;;;;;;;;;;;;;;;;;;5133350;28;19962;-41
2024/01/04 05:36:02;;;;;;;;;;;;;;;;;;5131602;28;20411;-41
2024/01/04 05:38:28;;;;;;;;;;;;;;;;;;5132690;28;19955;-43
2024/01/04 05:40:53;;;;;;;;;;;;;;;;;;5132589;28;19959;-42
2024/01/04 05:43:18;;;;;;;;;;;;;;;;;;5133266;28;20278;-42
2024/01/04 05:45:44;;;;;;;;;;;;;;;;;;5119247;28;19959;-43
2024/01/04 05:48:09;;;;;;;;;;;;;;;;;;5132663;28;19955;-42
2024/01/04 05:50:35;;;;;;;;;;;;;;;;;;5132839;28;19923;-40
2024/01/04 05:53:00;;;;;;;;;;;;;;;;;;5132680;28;19958;-42
2024/01/04 05:55:27;;;;;;;;;;;;;;;;;;5131626;28;19927;-42
2024/01/04 05:57:52;;;;;;;;;;;;;;;;;;5132769;27;19923;-42
2024/01/04 06:00:17;;;;;;;;;;;;;;;;;;5132629;28;19923;-41
2024/01/04 06:02:44;;;;;;;;;;;;;;;;;;5133186;28;19930;-40
2024/01/04 06:05:09;;;;;;;;;;;;;;;;;;5133795;28;19923;-40
2024/01/04 06:07:35;;;;;;;;;;;;;;;;;;5133768;28;19923;-41
2024/01/04 06:10:01;;;;;;;;;;;;;;;;;;5133647;27;20008;-43
2024/01/04 06:12:26;;;;;;;;;;;;;;;;;;5133538;28;20023;-42
2024/01/04 06:14:52;;;;;;;;;;;;;;;;;;5133154;28;19971;-40
2024/01/04 06:17:17;;;;;;;;;;;;;;;;;;5132985;28;19924;-41
2024/01/04 06:19:44;;;;;;;;;;;;;;;;;;5133048;28;20588;-42
2024/01/04 06:22:09;;;;;;;;;;;;;;;;;;5133317;28;19973;-40
2024/01/04 06:24:35;;;;;;;;;;;;;;;;;;5133393;28;19950;-41
2024/01/04 06:27:00;;;;;;;;;;;;;;;;;;5133363;28;20023;-43
2024/01/04 06:29:26;;;;;;;;;;;;;;;;;;5133469;27;19927;-41
2024/01/04 06:31:51;;;;;;;;;;;;;;;;;;5126180;28;20010;-44
2024/01/04 06:34:17;;;;;;;;;;;;;;;;;;5127409;28;20326;-40
2024/01/04 06:36:42;;;;;;;;;;;;;;;;;;5123931;28;20032;-43
2024/01/04 06:39:08;;;;;;;;;;;;;;;;;;5112800;28;19995;-41
2024/01/04 06:41:34;;;;;;;;;;;;;;;;;;5126570;28;19931;-39
2024/01/04 06:44:00;;;;;;;;;;;;;;;;;;5133304;28;19970;-42
2024/01/04 06:46:25;;;;;;;;;;;;;;;;;;5132929;28;19924;-42
2024/01/04 06:48:51;;;;;;;;;;;;;;;;;;5131135;28;19982;-43
2024/01/04 06:51:17;;;;;;;;;;;;;;;;;;5132989;28;19923;-42
2024/01/04 06:53:42;;;;;;;;;;;;;;;;;;5132833;28;19930;-42
2024/01/04 06:56:08;;;;;;;;;;;;;;;;;;5132890;28;20061;-43
2024/01/04 06:58:33;;;;;;;;;;;;;;;;;;5132964;28;19955;-45
2024/01/04 07:00:58;;;;;;;;;;;;;;;;;;5132843;28;19927;-43
2024/01/04 07:03:24;;;;;;;;;;;;;;;;;;5132625;28;19923;-43
2024/01/04 07:05:50;;;;;;;;;;;;;;;;;;5132879;28;19931;-42
2024/01/04 07:08:16;;;;;;;;;;;;;;;;;;5133480;27;19927;-41
2024/01/04 07:10:41;;;;;;;;;;;;;;;;;;5136271;27;19927;-42
2024/01/04 07:13:06;;;;;;;;;;;;;;;;;;5136067;28;19928;-43
2024/01/04 07:15:32;;;;;;;;;;;;;;;;;;5136035;28;20444;-44
2024/01/04 07:17:57;;;;;;;;;;;;;;;;;;5135519;28;20274;-43
2024/01/04 07:20:23;;;;;;;;;;;;;;;;;;5135870;28;19947;-40
2024/01/04 07:22:52;;;;;;;;;;;;;;;;;;5136059;28;19976;-43
2024/01/04 07:25:17;;;;;;;;;;;;;;;;;;5136000;28;19923;-43
2024/01/04 07:27:43;;;;;;;;;;;;;;;;;;5136296;28;20381;-42
2024/01/04 07:30:11;;;;;;;;;;;;;;;;;;5136273;28;19924;-42
2024/01/04 07:32:37;;;;;;;;;;;;;;;;;;5135584;28;19934;-45
2024/01/04 07:35:03;;;;;;;;;;;;;;;;;;5135704;28;19946;-42
2024/01/04 07:37:37;;;;;;;;;;;;;;;;;;5134959;28;20367;-42
2024/01/04 07:40:03;;;;;;;;;;;;;;;;;;5135776;28;20011;-44
2024/01/04 07:42:29;;;;;;;;;;;;;;;;;;5136007;28;20451;-40
2024/01/04 07:44:54;;;;;;;;;;;;;;;;;;5135727;28;19923;-41
2024/01/04 07:47:27;;;;;;;;;;;;;;;;;;5135807;28;19976;-41
2024/01/04 07:49:53;;;;;;;;;;;;;;;;;;5135471;28;19927;-42
2024/01/04 07:52:19;;;;;;;;;;;;;;;;;;5135878;28;19976;-40
2024/01/04 07:54:44;;;;;;;;;;;;;;;;;;5135593;28;19994;-42
2024/01/04 07:57:13;;;;;;;;;;;;;;;;;;5135655;28;19972;-44
2024/01/04 07:59:39;;;;;;;;;;;;;;;;;;5133836;28;19928;-41
2024/01/04 08:02:04;;;;;;;;;;;;;;;;;;5135652;28;19924;-43
2024/01/04 08:04:30;;;;;;;;;;;;;;;;;;5135713;28;19976;-40
2024/01/04 08:06:55;;;;;;;;;;;;;;;;;;5133270;28;20479;-40
2024/01/04 08:09:21;;;;;;;;;;;;;;;;;;5134264;28;20014;-42
2024/01/04 08:11:47;;;;;;;;;;;;;;;;;;5135669;28;20009;-47
2024/01/04 08:14:12;;;;;;;;;;;;;;;;;;5134520;28;20084;-41
2024/01/04 08:16:38;;;;;;;;;;;;;;;;;;5134873;28;19934;-41
2024/01/04 08:19:03;;;;;;;;;;;;;;;;;;5131532;28;19931;-41
2024/01/04 08:21:29;;;;;;;;;;;;;;;;;;5114659;28;20383;-43
2024/01/04 08:23:55;;;;;;;;;;;;;;;;;;5114665;28;20022;-42
2024/01/04 08:26:20;;;;;;;;;;;;;;;;;;5114283;28;19976;-41
2024/01/04 08:28:46;;;;;;;;;;;;;;;;;;5123700;28;19923;-41
2024/01/04 08:31:11;;;;;;;;;;;;;;;;;;5134382;28;19931;-40
2024/01/04 08:33:37;;;;;;;;;;;;;;;;;;5134692;28;19927;-41
2024/01/04 08:36:02;;;;;;;;;;;;;;;;;;5134213;27;19972;-41
2024/01/04 08:38:28;;;;;;;;;;;;;;;;;;5133798;28;19927;-42
2024/01/04 08:40:53;;;;;;;;;;;;;;;;;;5134590;28;19927;-40
2024/01/04 08:43:19;;;;;;;;;;;;;;;;;;5134837;28;19946;-41
2024/01/04 08:45:44;;;;;;;;;;;;;;;;;;5134020;28;20010;-41
2024/01/04 08:48:10;;;;;;;;;;;;;;;;;;5134747;28;19969;-42
2024/01/04 08:50:36;;;;;;;;;;;;;;;;;;5134783;28;20356;-41
2024/01/04 08:53:02;;;;;;;;;;;;;;;;;;5134694;28;19933;-40
2024/01/04 08:55:27;;;;;;;;;;;;;;;;;;5134673;28;20006;-41
2024/01/04 08:57:52;;;;;;;;;;;;;;;;;;5134754;28;19971;-40
2024/01/04 09:00:18;;;;;;;;;;;;;;;;;;5134579;28;19923;-42
2024/01/04 09:02:45;;;;;;;;;;;;;;;;;;5133672;28;20394;-42
2024/01/04 09:05:11;;;;;;;;;;;;;;;;;;5134475;28;19972;-39
2024/01/04 09:07:37;;;;;;;;;;;;;;;;;;5134115;28;19927;-40
2024/01/04 09:10:02;;;;;;;;;;;;;;;;;;5133996;28;19931;-39
2024/01/04 09:12:28;;;;;;;;;;;;;;;;;;5134114;28;19927;-39
2024/01/04 09:14:53;;;;;;;;;;;;;;;;;;5133258;28;20025;-42
2024/01/04 09:17:19;;;;;;;;;;;;;;;;;;5132825;28;20374;-40
2024/01/04 09:19:46;;;;;;;;;;;;;;;;;;5133812;28;19984;-41
2024/01/04 09:22:11;;;;;;;;;;;;;;;;;;5133582;28;19927;-42
2024/01/04 09:24:37;;;;;;;;;;;;;;;;;;5132558;28;20280;-42
2024/01/04 09:27:02;;;;;;;;;;;;;;;;;;5133806;28;19955;-40
2024/01/04 09:29:28;;;;;;;;;;;;;;;;;;5133889;28;19927;-42
2024/01/04 09:31:55;;;;;;;;;;;;;;;;;;5133199;27;19963;-40
2024/01/04 09:34:20;;;;;;;;;;;;;;;;;;5113207;28;19924;-42
2024/01/04 09:36:46;;;;;;;;;;;;;;;;;;5127169;28;19927;-40
2024/01/04 09:39:17;;;;;;;;;;;;;;;;;;5133673;28;20018;-40
2024/01/04 09:41:44;;;;;;;;;;;;;;;;;;5124746;27;19927;-41
2024/01/04 09:44:10;;;;;;;;;;;;;;;;;;5113494;28;19931;-41
2024/01/04 09:46:35;;;;;;;;;;;;;;;;;;5112583;28;19924;-40
2024/01/04 09:49:01;;;;;;;;;;;;;;;;;;5113425;28;19986;-40
2024/01/04 09:51:26;;;;;;;;;;;;;;;;;;5113272;28;19923;-40
2024/01/04 09:53:53;;;;;;;;;;;;;;;;;;5112743;28;19970;-39
2024/01/04 09:56:18;;;;;;;;;;;;;;;;;;5120610;28;19948;-40
2024/01/04 09:58:44;;;;;;;;;;;;;;;;;;5132960;28;19923;-41
2024/01/04 10:01:10;;;;;;;;;;;;;;;;;;5133234;28;20026;-44
2024/01/04 10:03:38;;;;;;;;;;;;;;;;;;5132773;28;20019;-43
2024/01/04 10:06:06;;;;;;;;;;;;;;;;;;5133698;28;20351;-40
2024/01/04 10:08:32;;;;;;;;;;;;;;;;;;5133092;28;19923;-42
2024/01/04 10:10:57;;;;;;;;;;;;;;;;;;5129330;28;20451;-40
2024/01/04 10:13:23;;;;;;;;;;;;;;;;;;5127179;28;20014;-40
2024/01/04 10:15:48;;;;;;;;;;;;;;;;;;5124485;28;20021;-43
2024/01/04 10:18:14;;;;;;;;;;;;;;;;;;5132585;28;19927;-42
2024/01/04 10:20:40;;;;;;;;;;;;;;;;;;5131945;28;19934;-40
2024/01/04 10:23:07;;;;;;;;;;;;;;;;;;5132895;28;20015;-42
2024/01/04 10:25:33;;;;;;;;;;;;;;;;;;5132734;28;19924;-40
2024/01/04 10:27:59;;;;;;;;;;;;;;;;;;5132181;28;19931;-40
2024/01/04 10:30:25;;;;;;;;;;;;;;;;;;5130043;28;19958;-40
2024/01/04 10:32:51;;;;;;;;;;;;;;;;;;5132503;28;19931;-42
2024/01/04 10:35:16;;;;;;;;;;;;;;;;;;5132647;27;19924;-41
2024/01/04 10:37:42;;;;;;;;;;;;;;;;;;5130163;28;19931;-40
2024/01/04 10:40:09;;;;;;;;;;;;;;;;;;5127287;28;19977;-42
2024/01/04 10:42:35;;;;;;;;;;;;;;;;;;5130385;27;19924;-40
2024/01/04 10:45:01;;;;;;;;;;;;;;;;;;5134079;28;19970;-40
2024/01/04 10:47:27;;;;;;;;;;;;;;;;;;5136031;28;19931;-41
2024/01/04 10:49:52;;;;;;;;;;;;;;;;;;5136322;28;19923;-42
2024/01/04 10:52:19;;;;;;;;;;;;;;;;;;5136194;28;19967;-43
2024/01/04 10:54:45;;;;;;;;;;;;;;;;;;5136214;27;20291;-40
2024/01/04 10:57:10;;;;;;;;;;;;;;;;;;5136252;28;19932;-42
2024/01/04 10:59:36;;;;;;;;;;;;;;;;;;5135332;28;19931;-44
2024/01/04 11:02:01;;;;;;;;;;;;;;;;;;5130921;28;20018;-40
2024/01/04 11:04:27;;;;;;;;;;;;;;;;;;5135886;28;19931;-41
2024/01/04 11:06:55;;;;;;;;;;;;;;;;;;5136572;28;19931;-42
2024/01/04 11:09:21;;;;;;;;;;;;;;;;;;5136200;28;20320;-41
2024/01/04 11:11:46;;;;;;;;;;;;;;;;;;5132658;28;20034;-40
2024/01/04 11:14:12;;;;;;;;;;;;;;;;;;5135562;28;19973;-43
2024/01/04 11:16:37;;;;;;;;;;;;;;;;;;5135503;28;20011;-42
2024/01/04 11:19:03;;;;;;;;;;;;;;;;;;5135820;28;19974;-42
2024/01/04 11:21:28;;;;;;;;;;;;;;;;;;5135966;28;19963;-41
2024/01/04 11:23:54;;;;;;;;;;;;;;;;;;5135923;28;20275;-41
2024/01/04 11:26:19;;;;;;;;;;;;;;;;;;5136209;28;19951;-42
2024/01/04 11:28:45;;;;;;;;;;;;;;;;;;5135831;28;20011;-41
2024/01/04 11:31:10;;;;;;;;;;;;;;;;;;5129986;28;19930;-40
2024/01/04 11:33:35;;;;;;;;;;;;;;;;;;5136023;28;20014;-41
2024/01/04 11:36:01;;;;;;;;;;;;;;;;;;5136024;28;20014;-40
2024/01/04 11:38:26;;;;;;;;;;;;;;;;;;5135183;28;20010;-40
2024/01/04 11:40:52;;;;;;;;;;;;;;;;;;5133693;28;19928;-40
2024/01/04 11:43:18;;;;;;;;;;;;;;;;;;5135937;28;19931;-42
2024/01/04 11:45:43;;;;;;;;;;;;;;;;;;5134949;28;19923;-40
2024/01/04 11:48:10;;;;;;;;;;;;;;;;;;5135885;28;19935;-41
2024/01/04 11:50:35;;;;;;;;;;;;;;;;;;5135377;28;20018;-40
2024/01/04 11:53:01;;;;;;;;;;;;;;;;;;5135789;28;19923;-43
2024/01/04 11:55:26;;;;;;;;;;;;;;;;;;5135271;27;19981;-40
2024/01/04 11:57:52;;;;;;;;;;;;;;;;;;5135685;28;19931;-40
2024/01/04 12:00:17;;;;;;;;;;;;;;;;;;5135413;28;19972;-40
2024/01/04 12:02:43;;;;;;;;;;;;;;;;;;5119787;28;20006;-42
2024/01/04 12:05:09;;;;;;;;;;;;;;;;;;5121686;28;19923;-41
2024/01/04 12:07:34;;;;;;;;;;;;;;;;;;5135598;28;19930;-44
2024/01/04 12:09:59;;;;;;;;;;;;;;;;;;5135502;28;20415;-41
2024/01/04 12:12:25;;;;;;;;;;;;;;;;;;5135715;28;19923;-40
2024/01/04 12:14:50;;;;;;;;;;;;;;;;;;5131689;28;20010;-43
2024/01/04 12:17:16;;;;;;;;;;;;;;;;;;5121555;28;20387;-40
2024/01/04 12:19:41;;;;;;;;;;;;;;;;;;5114764;28;19927;-41
2024/01/04 12:22:07;;;;;;;;;;;;;;;;;;5114776;28;19931;-39
2024/01/04 12:24:32;;;;;;;;;;;;;;;;;;5114361;28;19928;-40
2024/01/04 12:26:58;;;;;;;;;;;;;;;;;;5114919;28;20371;-42
2024/01/04 12:29:23;;;;;;;;;;;;;;;;;;5121824;28;19932;-42
2024/01/04 12:31:49;;;;;;;;;;;;;;;;;;5135098;28;19946;-42
2024/01/04 12:34:15;;;;;;;;;;;;;;;;;;5134775;28;20295;-41
2024/01/04 12:36:41;;;;;;;;;;;;;;;;;;5135116;28;19963;-43
2024/01/04 12:39:07;;;;;;;;;;;;;;;;;;5134941;28;19930;-40
2024/01/04 12:41:32;;;;;;;;;;;;;;;;;;5134532;28;20022;-40
2024/01/04 12:43:58;;;;;;;;;;;;;;;;;;5134356;28;19951;-40
2024/01/04 12:46:23;;;;;;;;;;;;;;;;;;5134430;28;20019;-41
2024/01/04 12:48:49;;;;;;;;;;;;;;;;;;5135046;28;19924;-41
2024/01/04 12:51:15;;;;;;;;;;;;;;;;;;5134834;28;19931;-41
2024/01/04 12:53:41;;;;;;;;;;;;;;;;;;5134646;28;19930;-42
2024/01/04 12:56:07;;;;;;;;;;;;;;;;;;5134597;28;20375;-42
2024/01/04 12:58:33;;;;;;;;;;;;;;;;;;5133932;28;19970;-40
2024/01/04 13:00:58;;;;;;;;;;;;;;;;;;5114184;28;19923;-45
2024/01/04 13:03:24;;;;;;;;;;;;;;;;;;5114031;28;20288;-41
2024/01/04 13:05:49;;;;;;;;;;;;;;;;;;5113273;28;20015;-42
2024/01/04 13:08:15;;;;;;;;;;;;;;;;;;5114109;28;20018;-44
2024/01/04 13:10:40;;;;;;;;;;;;;;;;;;5113868;28;20010;-41
2024/01/04 13:13:06;;;;;;;;;;;;;;;;;;5128575;28;19968;-42
2024/01/04 13:15:31;;;;;;;;;;;;;;;;;;5134082;28;20014;-41
2024/01/04 13:17:57;;;;;;;;;;;;;;;;;;5134790;28;20426;-42
2024/01/04 13:20:22;;;;;;;;;;;;;;;;;;5134451;28;19923;-40
2024/01/04 13:22:48;;;;;;;;;;;;;;;;;;5134305;28;19927;-42
2024/01/04 13:25:13;;;;;;;;;;;;;;;;;;5133729;28;20002;-40
2024/01/04 13:27:39;;;;;;;;;;;;;;;;;;5133104;28;20282;-39
2024/01/04 13:30:04;;;;;;;;;;;;;;;;;;5133782;28;19966;-40
2024/01/04 13:32:30;;;;;;;;;;;;;;;;;;5133698;28;19931;-42
2024/01/04 13:34:56;;;;;;;;;;;;;;;;;;5133349;28;19974;-40
2024/01/04 13:37:21;;;;;;;;;;;;;;;;;;5133133;28;19931;-42
2024/01/04 13:39:47;;;;;;;;;;;;;;;;;;5133262;28;19977;-40
2024/01/04 13:42:12;;;;;;;;;;;;;;;;;;5132904;28;19930;-42
2024/01/04 13:44:38;;;;;;;;;;;;;;;;;;5130819;28;20392;-41
2024/01/04 13:47:03;;;;;;;;;;;;;;;;;;5130291;28;19966;-42
2024/01/04 13:49:33;;;;;;;;;;;;;;;;;;5130495;28;19923;-40
2024/01/04 13:51:58;;;;;;;;;;;;;;;;;;5133250;28;20405;-40
2024/01/04 13:54:25;;;;;;;;;;;;;;;;;;5132930;28;21269;-40
2024/01/04 13:56:50;;;;;;;;;;;;;;;;;;5133241;28;19923;-41
2024/01/04 13:59:17;;;;;;;;;;;;;;;;;;5133524;28;19971;-42
2024/01/04 14:01:42;;;;;;;;;;;;;;;;;;5132334;28;19927;-39
2024/01/04 14:04:08;;;;;;;;;;;;;;;;;;5133124;28;21816;-39
2024/01/04 14:06:33;;;;;;;;;;;;;;;;;;5133590;28;20316;-41
2024/01/04 14:08:59;;;;;;;;;;;;;;;;;;5133725;28;19994;-42
2024/01/04 14:11:24;;;;;;;;;;;;;;;;;;5133275;28;19923;-40
2024/01/04 14:13:51;;;;;;;;;;;;;;;;;;5133218;28;19988;-40
2024/01/04 14:16:16;;;;;;;;;;;;;;;;;;5133376;28;19946;-40
2024/01/04 14:18:41;;;;;;;;;;;;;;;;;;5133548;27;20391;-40
2024/01/04 14:21:07;;;;;;;;;;;;;;;;;;5133488;28;19954;-41
2024/01/04 14:23:32;;;;;;;;;;;;;;;;;;5132336;28;20327;-42
2024/01/04 14:25:58;;;;;;;;;;;;;;;;;;5132896;28;20016;-41
2024/01/04 14:28:23;;;;;;;;;;;;;;;;;;5133349;28;19923;-41
2024/01/04 14:30:49;;;;;;;;;;;;;;;;;;5133173;28;19945;-39
2024/01/04 14:33:14;;;;;;;;;;;;;;;;;;5133087;28;19952;-40
2024/01/04 14:35:53;;;;;;;;;;;;;;;;;;5133276;28;19923;-40
2024/01/04 14:38:18;;;;;;;;;;;;;;;;;;5132097;28;19950;-41
2024/01/04 14:40:44;;;;;;;;;;;;;;;;;;5132444;28;20349;-39
2024/01/04 14:43:11;;;;;;;;;;;;;;;;;;5133054;28;20006;-40
2024/01/04 14:45:36;;;;;;;;;;;;;;;;;;5129908;28;19927;-39
2024/01/04 14:48:04;;;;;;;;;;;;;;;;;;5132222;28;19971;-39
2024/01/04 14:50:30;;;;;;;;;;;;;;;;;;5132079;28;19968;-40
2024/01/04 14:52:56;;;;;;;;;;;;;;;;;;5132282;28;19972;-40
2024/01/04 14:55:25;;;;;;;;;;;;;;;;;;5130892;27;19928;-40
2024/01/04 14:57:51;;;;;;;;;;;;;;;;;;5112377;28;20244;-40
2024/01/04 15:00:17;;;;;;;;;;;;;;;;;;5123248;28;19927;-40
2024/01/04 15:02:42;;;;;;;;;;;;;;;;;;5132607;28;19930;-41
2024/01/04 15:05:09;;;;;;;;;;;;;;;;;;5132921;28;20026;-40
2024/01/04 15:07:35;;;;;;;;;;;;;;;;;;5132504;28;19923;-42
2024/01/04 15:10:00;;;;;;;;;;;;;;;;;;5132566;28;20414;-40
2024/01/04 15:12:26;;;;;;;;;;;;;;;;;;5132295;28;20031;-39
2024/01/04 15:14:51;;;;;;;;;;;;;;;;;;5132634;28;19934;-40
2024/01/04 15:17:17;;;;;;;;;;;;;;;;;;5132874;28;20011;-39
2024/01/04 15:19:42;;;;;;;;;;;;;;;;;;5132026;28;19923;-41
2024/01/04 15:22:08;;;;;;;;;;;;;;;;;;5132609;28;20355;-41
2024/01/04 15:24:33;;;;;;;;;;;;;;;;;;5132691;28;20066;-42
2024/01/04 15:26:59;;;;;;;;;;;;;;;;;;5131758;28;20123;-39
2024/01/04 15:29:25;;;;;;;;;;;;;;;;;;5132715;27;19927;-43
2024/01/04 15:31:50;;;;;;;;;;;;;;;;;;5134748;27;19980;-42
2024/01/04 15:34:16;;;;;;;;;;;;;;;;;;5135137;28;19924;-42
2024/01/04 15:36:41;;;;;;;;;;;;;;;;;;5134695;28;20347;-39
2024/01/04 15:39:08;;;;;;;;;;;;;;;;;;5134386;28;20459;-40
2024/01/04 15:41:33;;;;;;;;;;;;;;;;;;5134026;27;19923;-42
2024/01/04 15:43:59;;;;;;;;;;;;;;;;;;5135575;28;19960;-40
2024/01/04 15:46:25;;;;;;;;;;;;;;;;;;5134811;28;19923;-41
2024/01/04 15:48:51;;;;;;;;;;;;;;;;;;5135136;28;19931;-42
2024/01/04 15:51:16;;;;;;;;;;;;;;;;;;5135329;28;19962;-41
2024/01/04 15:53:42;;;;;;;;;;;;;;;;;;5135650;28;19961;-40
2024/01/04 15:56:07;;;;;;;;;;;;;;;;;;5135196;28;20010;-41
2024/01/04 15:58:33;;;;;;;;;;;;;;;;;;5134819;28;19934;-41
2024/01/04 16:00:58;;;;;;;;;;;;;;;;;;5135130;28;19966;-40
2024/01/04 16:03:24;;;;;;;;;;;;;;;;;;5134931;27;20011;-40
2024/01/04 16:05:49;;;;;;;;;;;;;;;;;;5135154;28;19930;-40
2024/01/04 16:08:16;;;;;;;;;;;;;;;;;;5134614;28;20018;-40
2024/01/04 16:10:41;;;;;;;;;;;;;;;;;;5121960;27;19931;-40
2024/01/04 16:13:07;;;;;;;;;;;;;;;;;;5133382;28;20014;-40
2024/01/04 16:15:33;;;;;;;;;;;;;;;;;;5134163;28;19930;-41
2024/01/04 16:17:58;;;;;;;;;;;;;;;;;;5134852;28;19934;-42
2024/01/04 16:20:24;;;;;;;;;;;;;;;;;;5134247;28;19962;-39
2024/01/04 16:22:56;;;;;;;;;;;;;;;;;;5133686;28;19996;-40
2024/01/04 16:25:21;;;;;;;;;;;;;;;;;;5134674;28;19923;-43
2024/01/04 16:27:47;;;;;;;;;;;;;;;;;;5134393;28;19989;-41
2024/01/04 16:30:12;;;;;;;;;;;;;;;;;;5134399;28;19931;-40
2024/01/04 16:32:38;;;;;;;;;;;;;;;;;;5134473;28;20006;-40
2024/01/04 16:35:03;;;;;;;;;;;;;;;;;;5134799;28;19923;-41